Date,TemperatureHighF,TemperatureAvgF,TemperatureLowF,DewpointHighF,DewpointAvgF,DewpointLowF,HumidityHigh,HumidityAvg,HumidityLow,PressureMaxIn,PressureMinIn,WindSpeedMaxMPH,WindSpeedAvgMPH,GustSpeedMaxMPH,PrecipitationSumIn
2013-8-8,86,83,80,66,61,57,61,48,38,30.06,30.03,4,0,4,3.19
2013-8-9,95,82,76,75,69,55,85,66,29,30.11,30.03,8,1,8,0.12
2013-8-10,101,84,75,72,63,45,87,55,18,30.14,30.06,8,1,8,0.00
2013-8-11,100,85,74,71,60,45,87,50,16,30.17,30.09,10,1,10,0.00
2013-8-12,100,83,76,74,66,47,85,59,17,30.11,30.00,11,1,11,0.24
2013-8-13,97,84,74,73,63,48,89,56,19,30.03,29.88,14,2,14,0.04
2013-8-14,85,78,72,70,63,54,82,62,38,30.06,29.88,8,1,11,0.00
2013-8-15,72,69,65,68,63,58,90,81,64,30.11,30.03,5,0,8,1.02
2013-8-16,69,67,66,66,64,61,92,89,79,30.14,30.06,8,0,8,1.93
2013-8-17,72,68,66,68,65,64,92,89,81,30.17,30.09,6,0,6,0.31
2013-8-18,92,76,70,70,65,53,90,74,29,30.20,30.11,10,0,10,3.19
2013-8-19,84,75,70,72,68,61,91,79,48,30.20,30.09,13,1,13,0.39
2013-8-20,88,77,73,76,69,58,90,77,40,30.20,30.09,8,1,8,1.61
2013-8-21,95,79,73,73,66,53,90,71,27,30.26,30.14,11,0,11,0.00
2013-8-22,98,82,71,75,59,42,90,54,16,30.17,30.06,10,1,10,0.00
2013-8-23,97,81,72,67,62,46,85,56,20,30.09,29.97,10,1,10,0.00
2013-8-24,84,76,71,68,61,52,86,64,34,30.26,30.06,9,1,9,0.00
2013-8-25,89,74,64,64,50,35,87,50,18,30.35,30.26,13,1,13,0.00
2013-8-26,68,67,66,56,54,52,71,64,57,30.32,30.17,0,0,0,0.00
2013-8-27,96,76,62,62,53,41,84,52,16,30.17,30.03,7,0,7,0.00
2013-8-28,98,81,68,65,57,43,81,50,17,30.06,29.97,6,0,8,0.00
2013-8-29,99,84,73,70,62,50,81,52,21,30.00,29.91,8,1,9,0.00
2013-8-30,94,82,76,72,64,54,79,56,28,30.06,29.94,6,0,8,0.00
2013-8-31,96,82,73,72,66,54,86,61,27,30.00,29.88,5,0,8,0.00